sensor_id;sensor_type;location;lat;lon;timestamp;temperature;humidity
12309;DHT22;6217;48.150;17.142;2023-04-29T00:00:38;13.60;72.60
12309;DHT22;6217;48.150;17.142;2023-04-29T00:04:44;13.60;72.50
12309;DHT22;6217;48.150;17.142;2023-04-29T00:08:50;13.60;72.50
12309;DHT22;6217;48.150;17.142;2023-04-29T00:12:57;13.60;72.50
12309;DHT22;6217;48.150;17.142;2023-04-29T00:17:03;13.60;72.80
12309;DHT22;6217;48.150;17.142;2023-04-29T00:21:09;13.60;73.10
12309;DHT22;6217;48.150;17.142;2023-04-29T00:25:15;13.40;73.30
12309;DHT22;6217;48.150;17.142;2023-04-29T00:29:21;13.40;73.60
12309;DHT22;6217;48.150;17.142;2023-04-29T00:33:28;13.40;73.80
12309;DHT22;6217;48.150;17.142;2023-04-29T00:37:34;13.40;73.70
12309;DHT22;6217;48.150;17.142;2023-04-29T00:41:40;13.40;73.60
12309;DHT22;6217;48.150;17.142;2023-04-29T00:45:46;13.50;73.80
12309;DHT22;6217;48.150;17.142;2023-04-29T00:49:52;13.50;73.70
12309;DHT22;6217;48.150;17.142;2023-04-29T00:53:58;13.50;73.60
12309;DHT22;6217;48.150;17.142;2023-04-29T00:58:04;13.50;73.60
12309;DHT22;6217;48.150;17.142;2023-04-29T01:02:10;13.50;73.80
12309;DHT22;6217;48.150;17.142;2023-04-29T01:11:00;13.40;74.10
12309;DHT22;6217;48.150;17.142;2023-04-29T01:15:21;13.30;74.40
12309;DHT22;6217;48.150;17.142;2023-04-29T01:19:47;13.50;74.50
12309;DHT22;6217;48.150;17.142;2023-04-29T01:23:55;13.50;74.50
12309;DHT22;6217;48.150;17.142;2023-04-29T01:33:03;13.40;74.70
12309;DHT22;6217;48.150;17.142;2023-04-29T01:37:21;13.40;74.50
12309;DHT22;6217;48.150;17.142;2023-04-29T01:41:41;13.30;74.70
12309;DHT22;6217;48.150;17.142;2023-04-29T01:46:05;13.30;74.70
12309;DHT22;6217;48.150;17.142;2023-04-29T01:50:14;13.40;74.80
12309;DHT22;6217;48.150;17.142;2023-04-29T01:54:20;13.30;74.90
12309;DHT22;6217;48.150;17.142;2023-04-29T01:58:28;13.30;75.00
12309;DHT22;6217;48.150;17.142;2023-04-29T02:02:44;13.40;75.20
12309;DHT22;6217;48.150;17.142;2023-04-29T02:06:58;13.40;75.00
12309;DHT22;6217;48.150;17.142;2023-04-29T02:11:04;13.40;75.00
12309;DHT22;6217;48.150;17.142;2023-04-29T02:15:19;13.40;75.30
12309;DHT22;6217;48.150;17.142;2023-04-29T02:19:25;13.30;75.50
12309;DHT22;6217;48.150;17.142;2023-04-29T02:23:35;13.30;75.70
12309;DHT22;6217;48.150;17.142;2023-04-29T02:27:41;13.30;75.70
12309;DHT22;6217;48.150;17.142;2023-04-29T02:31:47;13.30;75.70
12309;DHT22;6217;48.150;17.142;2023-04-29T02:35:52;13.20;75.80
12309;DHT22;6217;48.150;17.142;2023-04-29T02:39:58;13.40;75.80
12309;DHT22;6217;48.150;17.142;2023-04-29T02:44:04;13.30;75.60
12309;DHT22;6217;48.150;17.142;2023-04-29T02:48:10;13.30;76.00
12309;DHT22;6217;48.150;17.142;2023-04-29T02:52:16;13.40;76.20
12309;DHT22;6217;48.150;17.142;2023-04-29T02:56:24;13.20;76.30
12309;DHT22;6217;48.150;17.142;2023-04-29T03:00:29;13.20;76.50
12309;DHT22;6217;48.150;17.142;2023-04-29T03:04:35;13.20;76.70
12309;DHT22;6217;48.150;17.142;2023-04-29T03:08:41;13.20;76.90
12309;DHT22;6217;48.150;17.142;2023-04-29T03:12:47;13.20;76.90
12309;DHT22;6217;48.150;17.142;2023-04-29T03:16:54;13.10;76.80
12309;DHT22;6217;48.150;17.142;2023-04-29T03:21:01;13.20;77.00
12309;DHT22;6217;48.150;17.142;2023-04-29T03:25:09;13.20;76.80
12309;DHT22;6217;48.150;17.142;2023-04-29T03:29:16;13.20;76.70
12309;DHT22;6217;48.150;17.142;2023-04-29T03:33:22;13.10;76.80
12309;DHT22;6217;48.150;17.142;2023-04-29T03:37:29;13.10;76.90
12309;DHT22;6217;48.150;17.142;2023-04-29T03:41:48;13.10;77.20
12309;DHT22;6217;48.150;17.142;2023-04-29T03:45:54;13.10;77.30
12309;DHT22;6217;48.150;17.142;2023-04-29T03:50:04;13.00;77.40
12309;DHT22;6217;48.150;17.142;2023-04-29T03:54:11;13.10;77.30
12309;DHT22;6217;48.150;17.142;2023-04-29T03:58:18;13.10;77.40
12309;DHT22;6217;48.150;17.142;2023-04-29T04:02:24;13.00;78.20
12309;DHT22;6217;48.150;17.142;2023-04-29T04:06:30;13.10;77.70
12309;DHT22;6217;48.150;17.142;2023-04-29T04:10:37;13.10;77.70
12309;DHT22;6217;48.150;17.142;2023-04-29T04:14:52;13.10;77.90
12309;DHT22;6217;48.150;17.142;2023-04-29T04:19:00;13.10;77.60
12309;DHT22;6217;48.150;17.142;2023-04-29T04:23:06;13.10;77.50
12309;DHT22;6217;48.150;17.142;2023-04-29T04:27:12;13.20;77.70
12309;DHT22;6217;48.150;17.142;2023-04-29T04:31:23;13.20;77.70
12309;DHT22;6217;48.150;17.142;2023-04-29T04:35:29;13.10;78.00
12309;DHT22;6217;48.150;17.142;2023-04-29T04:39:37;13.20;78.20
12309;DHT22;6217;48.150;17.142;2023-04-29T04:43:43;13.20;78.10
12309;DHT22;6217;48.150;17.142;2023-04-29T04:47:59;13.10;78.10
12309;DHT22;6217;48.150;17.142;2023-04-29T04:52:08;13.20;78.20
12309;DHT22;6217;48.150;17.142;2023-04-29T04:56:14;13.20;78.10
12309;DHT22;6217;48.150;17.142;2023-04-29T05:00:20;13.30;78.10
12309;DHT22;6217;48.150;17.142;2023-04-29T05:04:26;13.30;77.90
12309;DHT22;6217;48.150;17.142;2023-04-29T05:08:33;13.30;77.80
12309;DHT22;6217;48.150;17.142;2023-04-29T05:12:41;13.40;77.80
12309;DHT22;6217;48.150;17.142;2023-04-29T05:16:48;13.50;77.80
12309;DHT22;6217;48.150;17.142;2023-04-29T05:20:54;13.50;77.70
12309;DHT22;6217;48.150;17.142;2023-04-29T05:25:00;13.60;77.40
12309;DHT22;6217;48.150;17.142;2023-04-29T05:29:09;13.80;77.10
12309;DHT22;6217;48.150;17.142;2023-04-29T05:33:25;13.80;76.90
12309;DHT22;6217;48.150;17.142;2023-04-29T05:37:31;13.90;76.80
12309;DHT22;6217;48.150;17.142;2023-04-29T05:41:43;14.10;77.10
12309;DHT22;6217;48.150;17.142;2023-04-29T05:45:57;14.10;76.30
12309;DHT22;6217;48.150;17.142;2023-04-29T05:50:03;14.10;76.20
12309;DHT22;6217;48.150;17.142;2023-04-29T05:54:10;14.00;76.00
12309;DHT22;6217;48.150;17.142;2023-04-29T05:58:16;14.00;76.00
12309;DHT22;6217;48.150;17.142;2023-04-29T06:02:22;14.00;75.90
12309;DHT22;6217;48.150;17.142;2023-04-29T06:06:28;14.00;76.10
12309;DHT22;6217;48.150;17.142;2023-04-29T06:10:46;13.90;75.90
12309;DHT22;6217;48.150;17.142;2023-04-29T06:14:52;13.80;76.10
12309;DHT22;6217;48.150;17.142;2023-04-29T06:18:59;13.80;76.40
12309;DHT22;6217;48.150;17.142;2023-04-29T06:23:07;13.70;77.10
12309;DHT22;6217;48.150;17.142;2023-04-29T06:27:13;13.80;77.50
12309;DHT22;6217;48.150;17.142;2023-04-29T06:31:19;13.70;78.10
12309;DHT22;6217;48.150;17.142;2023-04-29T06:35:26;13.80;78.50
12309;DHT22;6217;48.150;17.142;2023-04-29T06:39:41;13.70;78.50
12309;DHT22;6217;48.150;17.142;2023-04-29T06:44:17;13.80;78.30
12309;DHT22;6217;48.150;17.142;2023-04-29T06:48:49;13.90;78.20
12309;DHT22;6217;48.150;17.142;2023-04-29T06:52:56;14.00;78.30
12309;DHT22;6217;48.150;17.142;2023-04-29T06:57:02;14.10;78.40
12309;DHT22;6217;48.150;17.142;2023-04-29T07:01:08;14.00;78.80
12309;DHT22;6217;48.150;17.142;2023-04-29T07:05:14;13.90;79.30
12309;DHT22;6217;48.150;17.142;2023-04-29T07:09:22;14.10;79.40
12309;DHT22;6217;48.150;17.142;2023-04-29T07:13:28;14.00;79.60
12309;DHT22;6217;48.150;17.142;2023-04-29T07:17:34;14.00;80.00
12309;DHT22;6217;48.150;17.142;2023-04-29T07:21:40;13.90;80.50
12309;DHT22;6217;48.150;17.142;2023-04-29T07:25:46;13.80;81.00
12309;DHT22;6217;48.150;17.142;2023-04-29T07:29:53;13.90;81.30
12309;DHT22;6217;48.150;17.142;2023-04-29T07:33:59;13.90;81.60
12309;DHT22;6217;48.150;17.142;2023-04-29T07:38:05;13.90;81.90
12309;DHT22;6217;48.150;17.142;2023-04-29T07:42:11;13.70;82.00
12309;DHT22;6217;48.150;17.142;2023-04-29T07:46:17;13.80;82.40
12309;DHT22;6217;48.150;17.142;2023-04-29T07:50:23;13.80;82.60
12309;DHT22;6217;48.150;17.142;2023-04-29T07:54:28;13.70;82.90
12309;DHT22;6217;48.150;17.142;2023-04-29T07:58:35;13.70;82.90
12309;DHT22;6217;48.150;17.142;2023-04-29T08:02:41;13.60;84.30
12309;DHT22;6217;48.150;17.142;2023-04-29T08:06:48;13.50;84.10
12309;DHT22;6217;48.150;17.142;2023-04-29T08:10:54;13.50;84.20
12309;DHT22;6217;48.150;17.142;2023-04-29T08:15:00;13.50;84.60
12309;DHT22;6217;48.150;17.142;2023-04-29T08:19:06;13.40;84.50
12309;DHT22;6217;48.150;17.142;2023-04-29T08:23:12;13.50;84.60
12309;DHT22;6217;48.150;17.142;2023-04-29T08:27:18;13.40;85.30
12309;DHT22;6217;48.150;17.142;2023-04-29T08:31:26;13.50;85.50
12309;DHT22;6217;48.150;17.142;2023-04-29T08:35:31;13.60;85.60
12309;DHT22;6217;48.150;17.142;2023-04-29T08:39:37;13.50;86.60
12309;DHT22;6217;48.150;17.142;2023-04-29T08:43:43;13.90;86.00
12309;DHT22;6217;48.150;17.142;2023-04-29T08:47:50;14.20;85.60
12309;DHT22;6217;48.150;17.142;2023-04-29T08:51:57;14.30;85.30
12309;DHT22;6217;48.150;17.142;2023-04-29T08:56:08;14.50;85.20
12309;DHT22;6217;48.150;17.142;2023-04-29T09:00:18;14.70;85.00
12309;DHT22;6217;48.150;17.142;2023-04-29T09:04:53;15.00;85.10
12309;DHT22;6217;48.150;17.142;2023-04-29T09:09:06;15.30;83.30
12309;DHT22;6217;48.150;17.142;2023-04-29T09:13:31;15.60;82.70
12309;DHT22;6217;48.150;17.142;2023-04-29T09:17:44;15.60;81.60
12309;DHT22;6217;48.150;17.142;2023-04-29T09:21:54;15.90;81.70
12309;DHT22;6217;48.150;17.142;2023-04-29T09:26:01;16.00;81.10
12309;DHT22;6217;48.150;17.142;2023-04-29T09:30:07;16.10;81.10
12309;DHT22;6217;48.150;17.142;2023-04-29T09:34:14;16.30;80.60
12309;DHT22;6217;48.150;17.142;2023-04-29T09:38:21;16.30;80.30
12309;DHT22;6217;48.150;17.142;2023-04-29T09:42:28;16.40;80.20
12309;DHT22;6217;48.150;17.142;2023-04-29T09:46:35;16.40;79.70
12309;DHT22;6217;48.150;17.142;2023-04-29T09:50:42;16.50;79.60
12309;DHT22;6217;48.150;17.142;2023-04-29T09:54:52;16.60;79.10
12309;DHT22;6217;48.150;17.142;2023-04-29T09:59:09;16.70;78.60
12309;DHT22;6217;48.150;17.142;2023-04-29T10:03:15;16.60;78.30
12309;DHT22;6217;48.150;17.142;2023-04-29T10:07:22;16.60;78.60
12309;DHT22;6217;48.150;17.142;2023-04-29T10:11:29;16.60;78.80
12309;DHT22;6217;48.150;17.142;2023-04-29T10:15:40;16.70;78.60
12309;DHT22;6217;48.150;17.142;2023-04-29T10:19:55;16.70;78.40
12309;DHT22;6217;48.150;17.142;2023-04-29T10:24:03;16.50;78.70
12309;DHT22;6217;48.150;17.142;2023-04-29T10:28:13;16.50;79.20
12309;DHT22;6217;48.150;17.142;2023-04-29T10:32:21;16.40;79.00
12309;DHT22;6217;48.150;17.142;2023-04-29T10:36:29;16.40;79.00
12309;DHT22;6217;48.150;17.142;2023-04-29T10:40:43;16.20;79.00
12309;DHT22;6217;48.150;17.142;2023-04-29T10:49:23;16.00;79.70
12309;DHT22;6217;48.150;17.142;2023-04-29T10:53:29;16.00;80.00
12309;DHT22;6217;48.150;17.142;2023-04-29T10:57:35;16.00;80.30
12309;DHT22;6217;48.150;17.142;2023-04-29T11:06:07;16.00;81.00
12309;DHT22;6217;48.150;17.142;2023-04-29T11:10:14;16.00;81.40
12309;DHT22;6217;48.150;17.142;2023-04-29T11:14:28;16.10;81.60
12309;DHT22;6217;48.150;17.142;2023-04-29T11:23:15;16.40;81.80
12309;DHT22;6217;48.150;17.142;2023-04-29T11:27:24;16.30;82.20
12309;DHT22;6217;48.150;17.142;2023-04-29T11:31:32;16.40;82.20
12309;DHT22;6217;48.150;17.142;2023-04-29T11:35:38;16.50;82.00
12309;DHT22;6217;48.150;17.142;2023-04-29T11:39:44;16.40;81.80
12309;DHT22;6217;48.150;17.142;2023-04-29T11:43:58;16.40;81.90
12309;DHT22;6217;48.150;17.142;2023-04-29T11:48:04;16.40;82.50
12309;DHT22;6217;48.150;17.142;2023-04-29T11:52:11;16.30;83.20
12309;DHT22;6217;48.150;17.142;2023-04-29T11:56:20;16.40;83.30
12309;DHT22;6217;48.150;17.142;2023-04-29T12:00:30;16.40;83.20
12309;DHT22;6217;48.150;17.142;2023-04-29T12:04:46;16.60;82.80
12309;DHT22;6217;48.150;17.142;2023-04-29T12:08:52;16.70;82.90
12309;DHT22;6217;48.150;17.142;2023-04-29T12:12:58;16.80;82.70
12309;DHT22;6217;48.150;17.142;2023-04-29T12:17:05;16.70;82.40
12309;DHT22;6217;48.150;17.142;2023-04-29T12:21:11;16.60;82.20
12309;DHT22;6217;48.150;17.142;2023-04-29T12:25:17;16.70;82.60
12309;DHT22;6217;48.150;17.142;2023-04-29T12:29:25;16.70;82.60
12309;DHT22;6217;48.150;17.142;2023-04-29T12:33:31;16.80;82.80
12309;DHT22;6217;48.150;17.142;2023-04-29T12:37:37;17.00;82.60
12309;DHT22;6217;48.150;17.142;2023-04-29T12:41:43;17.10;82.30
12309;DHT22;6217;48.150;17.142;2023-04-29T12:46:00;17.10;82.10
12309;DHT22;6217;48.150;17.142;2023-04-29T12:50:12;17.10;82.00
12309;DHT22;6217;48.150;17.142;2023-04-29T12:54:18;17.10;82.40
12309;DHT22;6217;48.150;17.142;2023-04-29T12:58:27;17.20;82.30
12309;DHT22;6217;48.150;17.142;2023-04-29T13:02:34;17.30;82.30
12309;DHT22;6217;48.150;17.142;2023-04-29T13:06:40;17.30;82.00
12309;DHT22;6217;48.150;17.142;2023-04-29T13:10:46;17.30;82.10
12309;DHT22;6217;48.150;17.142;2023-04-29T13:14:52;17.40;82.20
12309;DHT22;6217;48.150;17.142;2023-04-29T13:19:00;17.50;82.40
12309;DHT22;6217;48.150;17.142;2023-04-29T13:23:06;17.40;82.90
12309;DHT22;6217;48.150;17.142;2023-04-29T13:27:12;17.50;82.90
12309;DHT22;6217;48.150;17.142;2023-04-29T13:31:18;17.60;82.60
12309;DHT22;6217;48.150;17.142;2023-04-29T13:35:24;17.70;82.80
12309;DHT22;6217;48.150;17.142;2023-04-29T13:39:30;17.70;83.00
12309;DHT22;6217;48.150;17.142;2023-04-29T13:43:35;17.80;82.90
12309;DHT22;6217;48.150;17.142;2023-04-29T13:47:41;18.10;82.50
12309;DHT22;6217;48.150;17.142;2023-04-29T13:51:48;18.10;82.00
12309;DHT22;6217;48.150;17.142;2023-04-29T13:55:54;18.20;81.70
12309;DHT22;6217;48.150;17.142;2023-04-29T14:00:00;18.20;81.30
12309;DHT22;6217;48.150;17.142;2023-04-29T14:04:06;18.40;81.00
12309;DHT22;6217;48.150;17.142;2023-04-29T14:08:12;18.40;80.60
12309;DHT22;6217;48.150;17.142;2023-04-29T14:12:18;18.50;80.50
12309;DHT22;6217;48.150;17.142;2023-04-29T14:16:24;18.60;80.30
12309;DHT22;6217;48.150;17.142;2023-04-29T14:20:30;18.70;80.10
12309;DHT22;6217;48.150;17.142;2023-04-29T14:24:36;18.80;79.90
12309;DHT22;6217;48.150;17.142;2023-04-29T14:28:43;18.80;79.90
12309;DHT22;6217;48.150;17.142;2023-04-29T14:32:49;18.90;79.80
12309;DHT22;6217;48.150;17.142;2023-04-29T14:36:55;18.60;80.10
12309;DHT22;6217;48.150;17.142;2023-04-29T14:41:03;18.50;80.70
12309;DHT22;6217;48.150;17.142;2023-04-29T14:45:09;18.40;80.90
12309;DHT22;6217;48.150;17.142;2023-04-29T14:49:15;18.20;81.20
12309;DHT22;6217;48.150;17.142;2023-04-29T14:53:21;18.10;81.60
12309;DHT22;6217;48.150;17.142;2023-04-29T14:57:33;18.20;81.80
12309;DHT22;6217;48.150;17.142;2023-04-29T15:01:39;18.10;81.90
12309;DHT22;6217;48.150;17.142;2023-04-29T15:05:44;17.90;82.40
12309;DHT22;6217;48.150;17.142;2023-04-29T15:09:51;17.80;82.80
12309;DHT22;6217;48.150;17.142;2023-04-29T15:13:57;17.50;83.50
12309;DHT22;6217;48.150;17.142;2023-04-29T15:18:03;17.50;84.20
12309;DHT22;6217;48.150;17.142;2023-04-29T15:22:10;17.30;84.60
12309;DHT22;6217;48.150;17.142;2023-04-29T15:26:17;17.20;84.70
12309;DHT22;6217;48.150;17.142;2023-04-29T15:30:25;17.10;84.90
12309;DHT22;6217;48.150;17.142;2023-04-29T15:34:31;17.10;85.00
12309;DHT22;6217;48.150;17.142;2023-04-29T15:38:37;17.10;85.00
12309;DHT22;6217;48.150;17.142;2023-04-29T15:42:43;17.00;85.60
12309;DHT22;6217;48.150;17.142;2023-04-29T15:46:49;17.00;85.80
12309;DHT22;6217;48.150;17.142;2023-04-29T15:50:55;16.90;85.70
12309;DHT22;6217;48.150;17.142;2023-04-29T15:55:01;16.90;85.90
12309;DHT22;6217;48.150;17.142;2023-04-29T15:59:07;16.80;86.30
12309;DHT22;6217;48.150;17.142;2023-04-29T16:03:13;16.80;86.70
12309;DHT22;6217;48.150;17.142;2023-04-29T16:07:19;16.80;86.70
12309;DHT22;6217;48.150;17.142;2023-04-29T16:11:25;16.90;86.40
12309;DHT22;6217;48.150;17.142;2023-04-29T16:15:31;16.80;86.30
12309;DHT22;6217;48.150;17.142;2023-04-29T16:19:37;16.90;86.40
12309;DHT22;6217;48.150;17.142;2023-04-29T16:23:43;17.00;86.30
12309;DHT22;6217;48.150;17.142;2023-04-29T16:27:49;17.20;85.80
12309;DHT22;6217;48.150;17.142;2023-04-29T16:31:55;17.30;85.70
12309;DHT22;6217;48.150;17.142;2023-04-29T16:36:01;17.30;85.50
12309;DHT22;6217;48.150;17.142;2023-04-29T16:40:08;17.20;85.50
12309;DHT22;6217;48.150;17.142;2023-04-29T16:44:14;17.10;85.70
12309;DHT22;6217;48.150;17.142;2023-04-29T16:48:20;17.10;85.70
12309;DHT22;6217;48.150;17.142;2023-04-29T16:52:26;17.00;85.80
12309;DHT22;6217;48.150;17.142;2023-04-29T16:56:32;17.00;86.10
12309;DHT22;6217;48.150;17.142;2023-04-29T17:00:37;16.80;86.10
12309;DHT22;6217;48.150;17.142;2023-04-29T17:04:43;16.90;86.20
12309;DHT22;6217;48.150;17.142;2023-04-29T17:08:49;16.80;86.30
12309;DHT22;6217;48.150;17.142;2023-04-29T17:12:56;16.80;86.50
12309;DHT22;6217;48.150;17.142;2023-04-29T17:17:02;16.80;86.70
12309;DHT22;6217;48.150;17.142;2023-04-29T17:21:08;16.80;86.60
12309;DHT22;6217;48.150;17.142;2023-04-29T17:25:14;16.80;86.70
12309;DHT22;6217;48.150;17.142;2023-04-29T17:29:20;16.90;86.80
12309;DHT22;6217;48.150;17.142;2023-04-29T17:33:26;16.90;87.10
12309;DHT22;6217;48.150;17.142;2023-04-29T17:37:38;16.80;87.20
12309;DHT22;6217;48.150;17.142;2023-04-29T17:41:44;16.80;87.20
12309;DHT22;6217;48.150;17.142;2023-04-29T17:45:51;16.80;87.20
12309;DHT22;6217;48.150;17.142;2023-04-29T17:49:57;16.70;87.40
12309;DHT22;6217;48.150;17.142;2023-04-29T17:54:03;16.60;87.70
12309;DHT22;6217;48.150;17.142;2023-04-29T17:58:10;16.60;87.80
12309;DHT22;6217;48.150;17.142;2023-04-29T18:02:16;16.60;88.00
12309;DHT22;6217;48.150;17.142;2023-04-29T18:06:22;16.60;88.00
12309;DHT22;6217;48.150;17.142;2023-04-29T18:10:28;16.50;88.20
12309;DHT22;6217;48.150;17.142;2023-04-29T18:14:34;16.50;88.50
12309;DHT22;6217;48.150;17.142;2023-04-29T18:18:40;16.40;88.60
12309;DHT22;6217;48.150;17.142;2023-04-29T18:22:46;16.30;88.80
12309;DHT22;6217;48.150;17.142;2023-04-29T18:26:51;16.20;89.00
12309;DHT22;6217;48.150;17.142;2023-04-29T18:30:57;16.20;89.30
12309;DHT22;6217;48.150;17.142;2023-04-29T18:35:04;16.10;89.40
12309;DHT22;6217;48.150;17.142;2023-04-29T18:39:10;16.10;90.10
12309;DHT22;6217;48.150;17.142;2023-04-29T18:43:16;16.10;89.90
12309;DHT22;6217;48.150;17.142;2023-04-29T18:47:26;15.90;90.00
12309;DHT22;6217;48.150;17.142;2023-04-29T18:51:32;15.90;90.10
12309;DHT22;6217;48.150;17.142;2023-04-29T18:55:38;15.80;90.20
12309;DHT22;6217;48.150;17.142;2023-04-29T18:59:44;15.70;90.20
12309;DHT22;6217;48.150;17.142;2023-04-29T19:03:50;15.70;90.30
12309;DHT22;6217;48.150;17.142;2023-04-29T19:07:56;15.60;90.40
12309;DHT22;6217;48.150;17.142;2023-04-29T19:12:03;15.60;90.50
12309;DHT22;6217;48.150;17.142;2023-04-29T19:16:10;15.50;90.60
12309;DHT22;6217;48.150;17.142;2023-04-29T19:20:16;15.60;90.70
12309;DHT22;6217;48.150;17.142;2023-04-29T19:24:22;15.50;90.90
12309;DHT22;6217;48.150;17.142;2023-04-29T19:28:28;15.50;91.00
12309;DHT22;6217;48.150;17.142;2023-04-29T19:32:34;15.40;91.10
12309;DHT22;6217;48.150;17.142;2023-04-29T19:36:40;15.50;91.20
12309;DHT22;6217;48.150;17.142;2023-04-29T19:40:46;15.40;91.30
12309;DHT22;6217;48.150;17.142;2023-04-29T19:44:52;15.40;91.40
12309;DHT22;6217;48.150;17.142;2023-04-29T19:48:58;15.30;91.50
12309;DHT22;6217;48.150;17.142;2023-04-29T19:53:04;15.30;91.60
12309;DHT22;6217;48.150;17.142;2023-04-29T19:57:10;15.40;91.60
12309;DHT22;6217;48.150;17.142;2023-04-29T20:01:16;15.40;91.60
12309;DHT22;6217;48.150;17.142;2023-04-29T20:05:22;15.50;91.70
12309;DHT22;6217;48.150;17.142;2023-04-29T20:09:28;15.60;91.60
12309;DHT22;6217;48.150;17.142;2023-04-29T20:13:33;15.60;91.60
12309;DHT22;6217;48.150;17.142;2023-04-29T20:17:39;15.70;91.60
12309;DHT22;6217;48.150;17.142;2023-04-29T20:21:45;15.70;91.60
12309;DHT22;6217;48.150;17.142;2023-04-29T20:25:51;15.80;91.70
12309;DHT22;6217;48.150;17.142;2023-04-29T20:29:57;15.80;91.60
12309;DHT22;6217;48.150;17.142;2023-04-29T20:34:03;15.80;91.60
12309;DHT22;6217;48.150;17.142;2023-04-29T20:38:10;15.80;91.60
12309;DHT22;6217;48.150;17.142;2023-04-29T20:42:16;15.90;91.90
12309;DHT22;6217;48.150;17.142;2023-04-29T20:46:22;15.80;91.60
12309;DHT22;6217;48.150;17.142;2023-04-29T20:50:28;15.80;91.70
12309;DHT22;6217;48.150;17.142;2023-04-29T20:54:34;15.80;92.00
12309;DHT22;6217;48.150;17.142;2023-04-29T20:58:40;15.80;91.70
12309;DHT22;6217;48.150;17.142;2023-04-29T21:02:46;15.80;91.80
12309;DHT22;6217;48.150;17.142;2023-04-29T21:06:52;15.60;91.90
12309;DHT22;6217;48.150;17.142;2023-04-29T21:10:57;15.60;92.00
12309;DHT22;6217;48.150;17.142;2023-04-29T21:15:04;15.60;92.10
12309;DHT22;6217;48.150;17.142;2023-04-29T21:19:11;15.60;92.20
12309;DHT22;6217;48.150;17.142;2023-04-29T21:23:17;15.50;92.30
12309;DHT22;6217;48.150;17.142;2023-04-29T21:27:23;15.50;92.70
12309;DHT22;6217;48.150;17.142;2023-04-29T21:31:29;15.50;92.60
12309;DHT22;6217;48.150;17.142;2023-04-29T21:35:35;15.50;92.60
12309;DHT22;6217;48.150;17.142;2023-04-29T21:39:43;15.50;92.70
12309;DHT22;6217;48.150;17.142;2023-04-29T21:43:49;15.50;92.90
12309;DHT22;6217;48.150;17.142;2023-04-29T21:48:22;15.50;93.00
12309;DHT22;6217;48.150;17.142;2023-04-29T21:52:28;15.40;93.10
12309;DHT22;6217;48.150;17.142;2023-04-29T21:56:39;15.40;93.10
12309;DHT22;6217;48.150;17.142;2023-04-29T22:00:45;15.40;93.30
12309;DHT22;6217;48.150;17.142;2023-04-29T22:05:02;15.30;93.30
12309;DHT22;6217;48.150;17.142;2023-04-29T22:09:08;15.30;93.40
12309;DHT22;6217;48.150;17.142;2023-04-29T22:13:15;15.30;93.40
12309;DHT22;6217;48.150;17.142;2023-04-29T22:17:20;15.30;93.50
12309;DHT22;6217;48.150;17.142;2023-04-29T22:21:26;15.30;93.60
12309;DHT22;6217;48.150;17.142;2023-04-29T22:25:32;15.30;93.60
12309;DHT22;6217;48.150;17.142;2023-04-29T22:29:38;15.40;93.60
12309;DHT22;6217;48.150;17.142;2023-04-29T22:33:44;15.30;93.80
12309;DHT22;6217;48.150;17.142;2023-04-29T22:37:50;15.40;93.50
12309;DHT22;6217;48.150;17.142;2023-04-29T22:41:56;15.30;93.50
12309;DHT22;6217;48.150;17.142;2023-04-29T22:46:02;15.40;93.40
12309;DHT22;6217;48.150;17.142;2023-04-29T22:50:08;15.40;93.30
12309;DHT22;6217;48.150;17.142;2023-04-29T22:54:15;15.30;93.30
12309;DHT22;6217;48.150;17.142;2023-04-29T22:58:21;15.30;93.30
12309;DHT22;6217;48.150;17.142;2023-04-29T23:02:29;15.20;93.40
12309;DHT22;6217;48.150;17.142;2023-04-29T23:06:35;15.10;93.30
12309;DHT22;6217;48.150;17.142;2023-04-29T23:10:46;15.10;93.20
12309;DHT22;6217;48.150;17.142;2023-04-29T23:14:53;15.00;93.30
12309;DHT22;6217;48.150;17.142;2023-04-29T23:18:59;15.00;93.30
12309;DHT22;6217;48.150;17.142;2023-04-29T23:23:05;15.00;93.30
12309;DHT22;6217;48.150;17.142;2023-04-29T23:27:11;15.00;93.10
12309;DHT22;6217;48.150;17.142;2023-04-29T23:31:17;15.00;93.00
12309;DHT22;6217;48.150;17.142;2023-04-29T23:35:23;15.00;93.00
12309;DHT22;6217;48.150;17.142;2023-04-29T23:39:29;14.90;92.80
12309;DHT22;6217;48.150;17.142;2023-04-29T23:43:35;14.80;92.80
12309;DHT22;6217;48.150;17.142;2023-04-29T23:47:41;14.80;92.70
12309;DHT22;6217;48.150;17.142;2023-04-29T23:51:46;14.70;92.70
12309;DHT22;6217;48.150;17.142;2023-04-29T23:55:52;14.70;92.60
12309;DHT22;6217;48.150;17.142;2023-04-29T23:59:58;14.60;92.50
